sensor_id;sensor_type;location;lat;lon;timestamp;P1;durP1;ratioP1;P2;durP2;ratioP2
10226;SDS011;15634;48.766;2.272;2022-12-19T00:00:31;31.08;;;17.33;;
10226;SDS011;15634;48.766;2.272;2022-12-19T00:02:58;29.15;;;16.90;;
10226;SDS011;15634;48.766;2.272;2022-12-19T00:05:27;24.33;;;15.82;;
10226;SDS011;15634;48.766;2.272;2022-12-19T00:07:53;26.80;;;16.08;;
10226;SDS011;15634;48.766;2.272;2022-12-19T00:10:21;27.67;;;15.98;;
10226;SDS011;15634;48.766;2.272;2022-12-19T00:12:48;30.33;;;15.88;;
10226;SDS011;15634;48.766;2.272;2022-12-19T00:15:14;30.63;;;16.60;;
10226;SDS011;15634;48.766;2.272;2022-12-19T00:17:41;31.42;;;15.82;;
10226;SDS011;15634;48.766;2.272;2022-12-19T00:20:08;26.70;;;15.68;;
10226;SDS011;15634;48.766;2.272;2022-12-19T00:22:37;28.40;;;15.48;;
10226;SDS011;15634;48.766;2.272;2022-12-19T00:25:04;27.73;;;15.45;;
10226;SDS011;15634;48.766;2.272;2022-12-19T00:27:32;27.58;;;15.65;;
10226;SDS011;15634;48.766;2.272;2022-12-19T00:29:59;29.30;;;15.27;;
10226;SDS011;15634;48.766;2.272;2022-12-19T00:32:26;25.98;;;15.43;;
10226;SDS011;15634;48.766;2.272;2022-12-19T00:34:52;27.52;;;16.30;;
10226;SDS011;15634;48.766;2.272;2022-12-19T00:37:19;28.33;;;14.65;;
10226;SDS011;15634;48.766;2.272;2022-12-19T00:39:47;25.63;;;15.57;;
10226;SDS011;15634;48.766;2.272;2022-12-19T00:42:14;27.73;;;15.68;;
10226;SDS011;15634;48.766;2.272;2022-12-19T00:44:40;26.38;;;15.30;;
10226;SDS011;15634;48.766;2.272;2022-12-19T00:47:07;26.92;;;15.82;;
10226;SDS011;15634;48.766;2.272;2022-12-19T00:49:34;26.17;;;15.05;;
10226;SDS011;15634;48.766;2.272;2022-12-19T00:52:01;26.90;;;14.13;;
10226;SDS011;15634;48.766;2.272;2022-12-19T00:54:27;30.30;;;14.65;;
10226;SDS011;15634;48.766;2.272;2022-12-19T00:56:55;24.55;;;14.25;;
10226;SDS011;15634;48.766;2.272;2022-12-19T00:59:22;24.65;;;14.43;;
10226;SDS011;15634;48.766;2.272;2022-12-19T01:01:49;24.02;;;14.32;;
10226;SDS011;15634;48.766;2.272;2022-12-19T01:04:15;24.02;;;14.15;;
10226;SDS011;15634;48.766;2.272;2022-12-19T01:06:42;24.08;;;14.63;;
10226;SDS011;15634;48.766;2.272;2022-12-19T01:09:09;27.42;;;15.15;;
10226;SDS011;15634;48.766;2.272;2022-12-19T01:11:36;28.92;;;15.60;;
10226;SDS011;15634;48.766;2.272;2022-12-19T01:14:22;23.27;;;14.40;;
10226;SDS011;15634;48.766;2.272;2022-12-19T01:16:48;25.15;;;14.45;;
10226;SDS011;15634;48.766;2.272;2022-12-19T01:19:15;24.67;;;14.55;;
10226;SDS011;15634;48.766;2.272;2022-12-19T01:21:42;23.88;;;14.20;;
10226;SDS011;15634;48.766;2.272;2022-12-19T01:24:09;22.67;;;13.05;;
10226;SDS011;15634;48.766;2.272;2022-12-19T01:26:35;22.08;;;13.55;;
10226;SDS011;15634;48.766;2.272;2022-12-19T01:29:03;23.98;;;14.25;;
10226;SDS011;15634;48.766;2.272;2022-12-19T01:31:31;21.88;;;13.25;;
10226;SDS011;15634;48.766;2.272;2022-12-19T01:33:58;23.13;;;12.90;;
10226;SDS011;15634;48.766;2.272;2022-12-19T01:36:25;26.38;;;13.80;;
10226;SDS011;15634;48.766;2.272;2022-12-19T01:38:53;21.00;;;13.68;;
10226;SDS011;15634;48.766;2.272;2022-12-19T01:41:20;21.45;;;13.07;;
10226;SDS011;15634;48.766;2.272;2022-12-19T01:43:54;22.50;;;12.85;;
10226;SDS011;15634;48.766;2.272;2022-12-19T01:46:23;21.23;;;12.05;;
10226;SDS011;15634;48.766;2.272;2022-12-19T01:48:53;23.75;;;13.40;;
10226;SDS011;15634;48.766;2.272;2022-12-19T01:51:20;24.52;;;13.27;;
10226;SDS011;15634;48.766;2.272;2022-12-19T01:53:50;21.27;;;12.82;;
10226;SDS011;15634;48.766;2.272;2022-12-19T01:56:18;20.73;;;12.65;;
10226;SDS011;15634;48.766;2.272;2022-12-19T01:58:47;19.08;;;12.10;;
10226;SDS011;15634;48.766;2.272;2022-12-19T02:01:15;22.92;;;12.55;;
10226;SDS011;15634;48.766;2.272;2022-12-19T02:03:43;21.73;;;12.40;;
10226;SDS011;15634;48.766;2.272;2022-12-19T02:06:12;24.17;;;12.55;;
10226;SDS011;15634;48.766;2.272;2022-12-19T02:08:39;25.08;;;13.95;;
10226;SDS011;15634;48.766;2.272;2022-12-19T02:11:06;22.38;;;13.68;;
10226;SDS011;15634;48.766;2.272;2022-12-19T02:13:33;23.10;;;13.80;;
10226;SDS011;15634;48.766;2.272;2022-12-19T02:16:01;24.52;;;14.52;;
10226;SDS011;15634;48.766;2.272;2022-12-19T02:18:34;25.55;;;14.18;;
10226;SDS011;15634;48.766;2.272;2022-12-19T02:21:14;24.60;;;14.95;;
10226;SDS011;15634;48.766;2.272;2022-12-19T02:26:53;23.10;;;14.50;;
10226;SDS011;15634;48.766;2.272;2022-12-19T02:29:29;25.63;;;14.57;;
10226;SDS011;15634;48.766;2.272;2022-12-19T02:32:18;24.52;;;14.85;;
10226;SDS011;15634;48.766;2.272;2022-12-19T02:34:49;23.00;;;14.00;;
10226;SDS011;15634;48.766;2.272;2022-12-19T02:37:20;26.50;;;14.83;;
10226;SDS011;15634;48.766;2.272;2022-12-19T02:39:50;24.52;;;14.15;;
10226;SDS011;15634;48.766;2.272;2022-12-19T02:42:21;25.42;;;14.13;;
10226;SDS011;15634;48.766;2.272;2022-12-19T02:44:51;23.15;;;13.00;;
10226;SDS011;15634;48.766;2.272;2022-12-19T02:47:20;27.13;;;13.77;;
10226;SDS011;15634;48.766;2.272;2022-12-19T02:49:47;22.45;;;13.50;;
10226;SDS011;15634;48.766;2.272;2022-12-19T02:55:15;28.05;;;13.93;;
10226;SDS011;15634;48.766;2.272;2022-12-19T02:57:51;23.20;;;13.10;;
10226;SDS011;15634;48.766;2.272;2022-12-19T03:00:22;23.38;;;13.48;;
10226;SDS011;15634;48.766;2.272;2022-12-19T03:02:53;25.63;;;12.50;;
10226;SDS011;15634;48.766;2.272;2022-12-19T03:05:23;18.65;;;12.38;;
10226;SDS011;15634;48.766;2.272;2022-12-19T03:07:54;20.88;;;12.30;;
10226;SDS011;15634;48.766;2.272;2022-12-19T03:10:24;19.92;;;11.98;;
10226;SDS011;15634;48.766;2.272;2022-12-19T03:12:55;19.10;;;11.95;;
10226;SDS011;15634;48.766;2.272;2022-12-19T03:15:25;18.98;;;12.70;;
10226;SDS011;15634;48.766;2.272;2022-12-19T03:17:55;19.77;;;11.77;;
10226;SDS011;15634;48.766;2.272;2022-12-19T03:20:25;22.65;;;12.15;;
10226;SDS011;15634;48.766;2.272;2022-12-19T03:22:57;20.95;;;12.02;;
10226;SDS011;15634;48.766;2.272;2022-12-19T03:25:24;20.60;;;12.82;;
10226;SDS011;15634;48.766;2.272;2022-12-19T03:27:52;17.02;;;11.57;;
10226;SDS011;15634;48.766;2.272;2022-12-19T03:30:19;19.95;;;12.02;;
10226;SDS011;15634;48.766;2.272;2022-12-19T03:32:46;19.90;;;11.98;;
10226;SDS011;15634;48.766;2.272;2022-12-19T03:35:16;21.30;;;11.85;;
10226;SDS011;15634;48.766;2.272;2022-12-19T03:37:44;20.33;;;12.10;;
10226;SDS011;15634;48.766;2.272;2022-12-19T03:40:13;17.70;;;11.43;;
10226;SDS011;15634;48.766;2.272;2022-12-19T03:42:41;20.55;;;11.07;;
10226;SDS011;15634;48.766;2.272;2022-12-19T03:45:28;16.70;;;10.23;;
10226;SDS011;15634;48.766;2.272;2022-12-19T03:47:59;17.13;;;9.77;;
10226;SDS011;15634;48.766;2.272;2022-12-19T03:50:29;15.98;;;9.73;;
10226;SDS011;15634;48.766;2.272;2022-12-19T03:52:59;16.58;;;10.15;;
10226;SDS011;15634;48.766;2.272;2022-12-19T03:55:31;15.02;;;9.48;;
10226;SDS011;15634;48.766;2.272;2022-12-19T03:58:04;14.68;;;9.57;;
10226;SDS011;15634;48.766;2.272;2022-12-19T04:00:33;14.68;;;10.10;;
10226;SDS011;15634;48.766;2.272;2022-12-19T04:03:01;15.45;;;9.13;;
10226;SDS011;15634;48.766;2.272;2022-12-19T04:05:30;17.63;;;9.73;;
10226;SDS011;15634;48.766;2.272;2022-12-19T04:07:57;16.80;;;10.18;;
10226;SDS011;15634;48.766;2.272;2022-12-19T04:10:26;18.38;;;10.35;;
10226;SDS011;15634;48.766;2.272;2022-12-19T04:12:54;19.17;;;10.88;;
10226;SDS011;15634;48.766;2.272;2022-12-19T04:15:28;21.90;;;11.65;;
10226;SDS011;15634;48.766;2.272;2022-12-19T04:17:59;20.55;;;11.02;;
10226;SDS011;15634;48.766;2.272;2022-12-19T04:20:30;25.63;;;11.75;;
10226;SDS011;15634;48.766;2.272;2022-12-19T04:22:58;24.63;;;12.95;;
10226;SDS011;15634;48.766;2.272;2022-12-19T04:25:28;26.88;;;13.27;;
10226;SDS011;15634;48.766;2.272;2022-12-19T04:27:57;31.27;;;13.43;;
10226;SDS011;15634;48.766;2.272;2022-12-19T04:30:25;23.45;;;12.85;;
10226;SDS011;15634;48.766;2.272;2022-12-19T04:32:52;25.65;;;13.68;;
10226;SDS011;15634;48.766;2.272;2022-12-19T04:35:19;25.60;;;13.30;;
10226;SDS011;15634;48.766;2.272;2022-12-19T04:37:47;28.17;;;14.32;;
10226;SDS011;15634;48.766;2.272;2022-12-19T04:40:14;28.92;;;13.63;;
10226;SDS011;15634;48.766;2.272;2022-12-19T04:42:40;26.42;;;14.07;;
10226;SDS011;15634;48.766;2.272;2022-12-19T04:45:07;26.88;;;13.95;;
10226;SDS011;15634;48.766;2.272;2022-12-19T04:47:34;31.38;;;15.43;;
10226;SDS011;15634;48.766;2.272;2022-12-19T04:50:01;29.10;;;14.98;;
10226;SDS011;15634;48.766;2.272;2022-12-19T04:52:28;30.33;;;14.13;;
10226;SDS011;15634;48.766;2.272;2022-12-19T04:54:56;29.50;;;13.63;;
10226;SDS011;15634;48.766;2.272;2022-12-19T04:57:23;26.00;;;13.10;;
10226;SDS011;15634;48.766;2.272;2022-12-19T04:59:49;28.52;;;15.15;;
10226;SDS011;15634;48.766;2.272;2022-12-19T05:02:16;30.45;;;13.68;;
10226;SDS011;15634;48.766;2.272;2022-12-19T05:04:43;29.48;;;14.65;;
10226;SDS011;15634;48.766;2.272;2022-12-19T05:07:09;24.20;;;12.68;;
10226;SDS011;15634;48.766;2.272;2022-12-19T05:09:36;22.58;;;11.50;;
10226;SDS011;15634;48.766;2.272;2022-12-19T05:12:04;19.90;;;10.40;;
10226;SDS011;15634;48.766;2.272;2022-12-19T05:14:31;18.83;;;10.95;;
10226;SDS011;15634;48.766;2.272;2022-12-19T05:16:58;17.25;;;10.02;;
10226;SDS011;15634;48.766;2.272;2022-12-19T05:19:25;17.42;;;9.68;;
10226;SDS011;15634;48.766;2.272;2022-12-19T05:21:52;15.70;;;9.55;;
10226;SDS011;15634;48.766;2.272;2022-12-19T05:24:19;19.60;;;10.07;;
10226;SDS011;15634;48.766;2.272;2022-12-19T05:26:46;20.77;;;9.40;;
10226;SDS011;15634;48.766;2.272;2022-12-19T05:29:14;17.98;;;9.93;;
10226;SDS011;15634;48.766;2.272;2022-12-19T05:31:41;21.98;;;10.55;;
10226;SDS011;15634;48.766;2.272;2022-12-19T05:34:08;27.27;;;11.73;;
10226;SDS011;15634;48.766;2.272;2022-12-19T05:36:34;22.73;;;11.82;;
10226;SDS011;15634;48.766;2.272;2022-12-19T05:39:01;27.02;;;12.30;;
10226;SDS011;15634;48.766;2.272;2022-12-19T05:41:28;17.58;;;10.70;;
10226;SDS011;15634;48.766;2.272;2022-12-19T05:43:55;18.85;;;10.05;;
10226;SDS011;15634;48.766;2.272;2022-12-19T05:46:23;19.15;;;10.10;;
10226;SDS011;15634;48.766;2.272;2022-12-19T05:48:51;16.67;;;9.18;;
10226;SDS011;15634;48.766;2.272;2022-12-19T05:51:18;16.83;;;10.27;;
10226;SDS011;15634;48.766;2.272;2022-12-19T05:53:44;17.77;;;9.30;;
10226;SDS011;15634;48.766;2.272;2022-12-19T05:56:12;20.13;;;9.95;;
10226;SDS011;15634;48.766;2.272;2022-12-19T05:58:40;18.58;;;9.90;;
10226;SDS011;15634;48.766;2.272;2022-12-19T06:01:08;19.17;;;10.25;;
10226;SDS011;15634;48.766;2.272;2022-12-19T06:03:37;15.20;;;9.40;;
10226;SDS011;15634;48.766;2.272;2022-12-19T06:06:04;15.00;;;9.50;;
10226;SDS011;15634;48.766;2.272;2022-12-19T06:08:34;23.23;;;9.90;;
10226;SDS011;15634;48.766;2.272;2022-12-19T06:11:02;17.65;;;9.57;;
10226;SDS011;15634;48.766;2.272;2022-12-19T06:13:29;18.73;;;9.32;;
10226;SDS011;15634;48.766;2.272;2022-12-19T06:15:57;14.85;;;9.27;;
10226;SDS011;15634;48.766;2.272;2022-12-19T06:18:24;16.50;;;8.90;;
10226;SDS011;15634;48.766;2.272;2022-12-19T06:20:57;14.25;;;8.75;;
10226;SDS011;15634;48.766;2.272;2022-12-19T06:23:24;16.35;;;8.90;;
10226;SDS011;15634;48.766;2.272;2022-12-19T06:25:51;16.23;;;8.63;;
10226;SDS011;15634;48.766;2.272;2022-12-19T06:28:18;14.07;;;7.60;;
10226;SDS011;15634;48.766;2.272;2022-12-19T06:30:44;14.60;;;8.73;;
10226;SDS011;15634;48.766;2.272;2022-12-19T06:33:11;15.48;;;8.40;;
10226;SDS011;15634;48.766;2.272;2022-12-19T06:35:38;11.85;;;7.90;;
10226;SDS011;15634;48.766;2.272;2022-12-19T06:38:06;13.50;;;7.40;;
10226;SDS011;15634;48.766;2.272;2022-12-19T06:40:33;15.25;;;7.82;;
10226;SDS011;15634;48.766;2.272;2022-12-19T06:43:17;14.20;;;7.70;;
10226;SDS011;15634;48.766;2.272;2022-12-19T06:45:44;13.60;;;7.72;;
10226;SDS011;15634;48.766;2.272;2022-12-19T06:48:10;13.20;;;7.93;;
10226;SDS011;15634;48.766;2.272;2022-12-19T06:50:37;13.73;;;7.82;;
10226;SDS011;15634;48.766;2.272;2022-12-19T06:53:04;13.20;;;8.10;;
10226;SDS011;15634;48.766;2.272;2022-12-19T06:55:35;13.75;;;8.02;;
10226;SDS011;15634;48.766;2.272;2022-12-19T06:58:02;12.82;;;7.97;;
10226;SDS011;15634;48.766;2.272;2022-12-19T07:00:29;14.65;;;8.15;;
10226;SDS011;15634;48.766;2.272;2022-12-19T07:02:56;15.25;;;7.68;;
10226;SDS011;15634;48.766;2.272;2022-12-19T07:05:23;10.50;;;7.45;;
10226;SDS011;15634;48.766;2.272;2022-12-19T07:07:51;13.27;;;7.60;;
10226;SDS011;15634;48.766;2.272;2022-12-19T07:10:17;12.27;;;7.10;;
10226;SDS011;15634;48.766;2.272;2022-12-19T07:12:45;11.43;;;7.85;;
10226;SDS011;15634;48.766;2.272;2022-12-19T07:15:12;13.13;;;7.75;;
10226;SDS011;15634;48.766;2.272;2022-12-19T07:17:39;15.95;;;8.25;;
10226;SDS011;15634;48.766;2.272;2022-12-19T07:20:06;13.60;;;8.13;;
10226;SDS011;15634;48.766;2.272;2022-12-19T07:22:33;12.00;;;7.57;;
10226;SDS011;15634;48.766;2.272;2022-12-19T07:25:00;11.25;;;7.32;;
10226;SDS011;15634;48.766;2.272;2022-12-19T07:27:28;12.27;;;7.50;;
10226;SDS011;15634;48.766;2.272;2022-12-19T07:29:56;14.48;;;7.82;;
10226;SDS011;15634;48.766;2.272;2022-12-19T07:32:23;14.05;;;7.40;;
10226;SDS011;15634;48.766;2.272;2022-12-19T07:34:53;12.20;;;8.13;;
10226;SDS011;15634;48.766;2.272;2022-12-19T07:37:19;15.95;;;7.55;;
10226;SDS011;15634;48.766;2.272;2022-12-19T07:39:46;12.38;;;7.82;;
10226;SDS011;15634;48.766;2.272;2022-12-19T07:42:13;15.23;;;8.10;;
10226;SDS011;15634;48.766;2.272;2022-12-19T07:44:40;12.82;;;7.93;;
10226;SDS011;15634;48.766;2.272;2022-12-19T07:47:08;12.48;;;8.00;;
10226;SDS011;15634;48.766;2.272;2022-12-19T07:49:35;17.23;;;9.18;;
10226;SDS011;15634;48.766;2.272;2022-12-19T07:52:02;14.73;;;8.68;;
10226;SDS011;15634;48.766;2.272;2022-12-19T07:54:29;16.30;;;8.60;;
10226;SDS011;15634;48.766;2.272;2022-12-19T07:56:55;14.38;;;8.35;;
10226;SDS011;15634;48.766;2.272;2022-12-19T07:59:22;10.77;;;8.00;;
10226;SDS011;15634;48.766;2.272;2022-12-19T08:01:49;13.25;;;8.50;;
10226;SDS011;15634;48.766;2.272;2022-12-19T08:04:17;13.50;;;8.25;;
10226;SDS011;15634;48.766;2.272;2022-12-19T08:06:44;13.77;;;8.05;;
10226;SDS011;15634;48.766;2.272;2022-12-19T08:09:11;13.75;;;8.20;;
10226;SDS011;15634;48.766;2.272;2022-12-19T08:11:38;13.77;;;7.93;;
10226;SDS011;15634;48.766;2.272;2022-12-19T08:14:04;14.63;;;8.38;;
10226;SDS011;15634;48.766;2.272;2022-12-19T08:16:31;17.88;;;8.93;;
10226;SDS011;15634;48.766;2.272;2022-12-19T08:18:58;16.67;;;8.95;;
10226;SDS011;15634;48.766;2.272;2022-12-19T08:21:26;19.70;;;8.95;;
10226;SDS011;15634;48.766;2.272;2022-12-19T08:23:52;17.15;;;8.90;;
10226;SDS011;15634;48.766;2.272;2022-12-19T08:26:19;17.10;;;9.18;;
10226;SDS011;15634;48.766;2.272;2022-12-19T08:28:49;12.93;;;8.85;;
10226;SDS011;15634;48.766;2.272;2022-12-19T08:31:16;15.80;;;8.27;;
10226;SDS011;15634;48.766;2.272;2022-12-19T08:33:43;20.40;;;9.50;;
10226;SDS011;15634;48.766;2.272;2022-12-19T08:36:11;17.60;;;9.90;;
10226;SDS011;15634;48.766;2.272;2022-12-19T08:38:40;17.58;;;9.35;;
10226;SDS011;15634;48.766;2.272;2022-12-19T08:41:07;15.95;;;9.50;;
10226;SDS011;15634;48.766;2.272;2022-12-19T08:43:35;18.27;;;9.75;;
10226;SDS011;15634;48.766;2.272;2022-12-19T08:46:02;19.02;;;10.07;;
10226;SDS011;15634;48.766;2.272;2022-12-19T08:48:29;16.40;;;9.43;;
10226;SDS011;15634;48.766;2.272;2022-12-19T08:50:57;17.58;;;10.35;;
10226;SDS011;15634;48.766;2.272;2022-12-19T08:53:25;18.95;;;10.23;;
10226;SDS011;15634;48.766;2.272;2022-12-19T08:55:54;17.15;;;10.43;;
10226;SDS011;15634;48.766;2.272;2022-12-19T08:58:21;19.33;;;10.85;;
10226;SDS011;15634;48.766;2.272;2022-12-19T09:00:48;13.77;;;9.50;;
10226;SDS011;15634;48.766;2.272;2022-12-19T09:03:17;18.92;;;10.07;;
10226;SDS011;15634;48.766;2.272;2022-12-19T09:05:43;17.58;;;9.50;;
10226;SDS011;15634;48.766;2.272;2022-12-19T09:08:11;22.55;;;10.32;;
10226;SDS011;15634;48.766;2.272;2022-12-19T09:10:38;18.33;;;9.52;;
10226;SDS011;15634;48.766;2.272;2022-12-19T09:13:06;16.38;;;9.43;;
10226;SDS011;15634;48.766;2.272;2022-12-19T09:15:33;16.40;;;9.55;;
10226;SDS011;15634;48.766;2.272;2022-12-19T09:18:00;15.02;;;9.25;;
10226;SDS011;15634;48.766;2.272;2022-12-19T09:20:27;16.70;;;9.25;;
10226;SDS011;15634;48.766;2.272;2022-12-19T09:22:53;20.05;;;9.23;;
10226;SDS011;15634;48.766;2.272;2022-12-19T09:25:20;17.33;;;9.35;;
10226;SDS011;15634;48.766;2.272;2022-12-19T09:27:47;17.30;;;9.10;;
10226;SDS011;15634;48.766;2.272;2022-12-19T09:30:15;15.63;;;7.82;;
10226;SDS011;15634;48.766;2.272;2022-12-19T09:32:42;15.73;;;8.77;;
10226;SDS011;15634;48.766;2.272;2022-12-19T09:35:08;16.17;;;8.63;;
10226;SDS011;15634;48.766;2.272;2022-12-19T09:37:35;13.48;;;8.55;;
10226;SDS011;15634;48.766;2.272;2022-12-19T09:40:02;13.15;;;7.85;;
10226;SDS011;15634;48.766;2.272;2022-12-19T09:42:34;14.65;;;7.85;;
10226;SDS011;15634;48.766;2.272;2022-12-19T09:45:10;14.85;;;8.07;;
10226;SDS011;15634;48.766;2.272;2022-12-19T09:47:56;10.93;;;7.25;;
10226;SDS011;15634;48.766;2.272;2022-12-19T09:50:26;14.50;;;8.40;;
10226;SDS011;15634;48.766;2.272;2022-12-19T09:52:58;10.98;;;7.72;;
10226;SDS011;15634;48.766;2.272;2022-12-19T09:55:30;14.32;;;7.53;;
10226;SDS011;15634;48.766;2.272;2022-12-19T09:58:00;11.32;;;6.88;;
10226;SDS011;15634;48.766;2.272;2022-12-19T10:00:32;10.80;;;6.75;;
10226;SDS011;15634;48.766;2.272;2022-12-19T10:03:04;12.52;;;7.00;;
10226;SDS011;15634;48.766;2.272;2022-12-19T10:05:38;9.68;;;6.07;;
10226;SDS011;15634;48.766;2.272;2022-12-19T10:08:08;9.32;;;5.50;;
10226;SDS011;15634;48.766;2.272;2022-12-19T10:10:42;9.02;;;6.30;;
10226;SDS011;15634;48.766;2.272;2022-12-19T10:13:16;9.10;;;6.32;;
10226;SDS011;15634;48.766;2.272;2022-12-19T10:15:51;10.70;;;6.55;;
10226;SDS011;15634;48.766;2.272;2022-12-19T10:18:25;13.73;;;7.65;;
10226;SDS011;15634;48.766;2.272;2022-12-19T10:21:01;17.60;;;8.73;;
10226;SDS011;15634;48.766;2.272;2022-12-19T10:23:56;20.48;;;10.07;;
10226;SDS011;15634;48.766;2.272;2022-12-19T10:26:28;24.15;;;11.98;;
10226;SDS011;15634;48.766;2.272;2022-12-19T10:29:03;22.42;;;11.38;;
10226;SDS011;15634;48.766;2.272;2022-12-19T10:31:40;20.05;;;10.80;;
10226;SDS011;15634;48.766;2.272;2022-12-19T10:34:16;20.35;;;10.65;;
10226;SDS011;15634;48.766;2.272;2022-12-19T10:36:46;17.10;;;9.50;;
10226;SDS011;15634;48.766;2.272;2022-12-19T10:39:17;15.50;;;8.68;;
10226;SDS011;15634;48.766;2.272;2022-12-19T10:41:50;15.10;;;7.13;;
10226;SDS011;15634;48.766;2.272;2022-12-19T10:44:20;14.27;;;6.70;;
10226;SDS011;15634;48.766;2.272;2022-12-19T10:46:48;11.30;;;5.97;;
10226;SDS011;15634;48.766;2.272;2022-12-19T10:49:17;8.60;;;4.75;;
10226;SDS011;15634;48.766;2.272;2022-12-19T10:51:51;7.30;;;4.50;;
10226;SDS011;15634;48.766;2.272;2022-12-19T10:54:19;6.80;;;4.22;;
10226;SDS011;15634;48.766;2.272;2022-12-19T10:56:46;7.70;;;4.35;;
10226;SDS011;15634;48.766;2.272;2022-12-19T10:59:14;8.45;;;4.32;;
10226;SDS011;15634;48.766;2.272;2022-12-19T11:01:42;6.25;;;4.30;;
10226;SDS011;15634;48.766;2.272;2022-12-19T11:04:13;6.57;;;4.10;;
10226;SDS011;15634;48.766;2.272;2022-12-19T11:06:49;5.88;;;4.07;;
10226;SDS011;15634;48.766;2.272;2022-12-19T11:09:18;5.20;;;3.80;;
10226;SDS011;15634;48.766;2.272;2022-12-19T11:11:47;6.22;;;3.53;;
10226;SDS011;15634;48.766;2.272;2022-12-19T11:14:18;6.32;;;3.80;;
10226;SDS011;15634;48.766;2.272;2022-12-19T11:16:46;5.15;;;3.60;;
10226;SDS011;15634;48.766;2.272;2022-12-19T11:19:20;5.65;;;3.50;;
10226;SDS011;15634;48.766;2.272;2022-12-19T11:21:49;7.22;;;4.32;;
10226;SDS011;15634;48.766;2.272;2022-12-19T11:24:20;8.10;;;3.78;;
10226;SDS011;15634;48.766;2.272;2022-12-19T11:26:50;7.68;;;3.88;;
10226;SDS011;15634;48.766;2.272;2022-12-19T11:29:20;6.50;;;3.92;;
10226;SDS011;15634;48.766;2.272;2022-12-19T11:31:52;7.55;;;3.95;;
10226;SDS011;15634;48.766;2.272;2022-12-19T11:34:23;5.78;;;3.88;;
10226;SDS011;15634;48.766;2.272;2022-12-19T11:36:51;6.75;;;3.50;;
10226;SDS011;15634;48.766;2.272;2022-12-19T11:39:21;6.97;;;3.90;;
10226;SDS011;15634;48.766;2.272;2022-12-19T11:41:54;4.68;;;3.60;;
10226;SDS011;15634;48.766;2.272;2022-12-19T11:44:26;6.85;;;3.70;;
10226;SDS011;15634;48.766;2.272;2022-12-19T11:46:56;5.95;;;3.78;;
10226;SDS011;15634;48.766;2.272;2022-12-19T11:49:30;5.53;;;3.63;;
10226;SDS011;15634;48.766;2.272;2022-12-19T11:52:02;5.40;;;3.70;;
10226;SDS011;15634;48.766;2.272;2022-12-19T11:54:33;6.72;;;3.60;;
10226;SDS011;15634;48.766;2.272;2022-12-19T11:57:01;6.10;;;3.75;;
10226;SDS011;15634;48.766;2.272;2022-12-19T11:59:29;6.68;;;3.63;;
10226;SDS011;15634;48.766;2.272;2022-12-19T12:01:59;7.05;;;3.92;;
10226;SDS011;15634;48.766;2.272;2022-12-19T12:04:47;8.13;;;3.83;;
10226;SDS011;15634;48.766;2.272;2022-12-19T12:07:20;5.05;;;3.50;;
10226;SDS011;15634;48.766;2.272;2022-12-19T12:09:48;5.00;;;3.45;;
10226;SDS011;15634;48.766;2.272;2022-12-19T12:12:19;6.53;;;3.95;;
10226;SDS011;15634;48.766;2.272;2022-12-19T12:17:46;6.15;;;3.53;;
10226;SDS011;15634;48.766;2.272;2022-12-19T12:20:20;5.35;;;3.35;;
10226;SDS011;15634;48.766;2.272;2022-12-19T12:23:05;4.95;;;3.33;;
10226;SDS011;15634;48.766;2.272;2022-12-19T12:25:46;4.60;;;3.58;;
10226;SDS011;15634;48.766;2.272;2022-12-19T12:28:29;5.68;;;3.30;;
10226;SDS011;15634;48.766;2.272;2022-12-19T12:31:13;3.95;;;3.10;;
10226;SDS011;15634;48.766;2.272;2022-12-19T12:34:21;5.28;;;3.50;;
10226;SDS011;15634;48.766;2.272;2022-12-19T12:37:11;8.88;;;3.20;;
10226;SDS011;15634;48.766;2.272;2022-12-19T12:39:53;5.10;;;3.22;;
10226;SDS011;15634;48.766;2.272;2022-12-19T12:42:31;5.95;;;3.25;;
10226;SDS011;15634;48.766;2.272;2022-12-19T12:45:12;6.45;;;3.17;;
10226;SDS011;15634;48.766;2.272;2022-12-19T12:47:45;6.07;;;3.20;;
10226;SDS011;15634;48.766;2.272;2022-12-19T12:50:13;5.15;;;2.90;;
10226;SDS011;15634;48.766;2.272;2022-12-19T12:52:44;5.57;;;3.78;;
10226;SDS011;15634;48.766;2.272;2022-12-19T12:55:13;5.78;;;3.38;;
10226;SDS011;15634;48.766;2.272;2022-12-19T12:57:52;6.95;;;3.20;;
10226;SDS011;15634;48.766;2.272;2022-12-19T13:00:23;5.22;;;3.53;;
10226;SDS011;15634;48.766;2.272;2022-12-19T13:02:55;7.75;;;3.67;;
10226;SDS011;15634;48.766;2.272;2022-12-19T13:05:37;7.77;;;3.43;;
10226;SDS011;15634;48.766;2.272;2022-12-19T13:08:26;6.93;;;3.17;;
10226;SDS011;15634;48.766;2.272;2022-12-19T13:11:05;5.65;;;3.35;;
10226;SDS011;15634;48.766;2.272;2022-12-19T13:13:57;5.10;;;3.10;;
10226;SDS011;15634;48.766;2.272;2022-12-19T13:19:14;5.78;;;3.10;;
10226;SDS011;15634;48.766;2.272;2022-12-19T13:24:44;6.32;;;3.08;;
10226;SDS011;15634;48.766;2.272;2022-12-19T13:27:33;5.93;;;3.20;;
10226;SDS011;15634;48.766;2.272;2022-12-19T13:30:18;5.97;;;3.17;;
10226;SDS011;15634;48.766;2.272;2022-12-19T13:35:34;6.55;;;3.40;;
10226;SDS011;15634;48.766;2.272;2022-12-19T13:38:02;4.85;;;3.00;;
10226;SDS011;15634;48.766;2.272;2022-12-19T13:40:55;7.28;;;3.58;;
10226;SDS011;15634;48.766;2.272;2022-12-19T13:43:25;4.90;;;3.17;;
10226;SDS011;15634;48.766;2.272;2022-12-19T13:46:19;5.95;;;3.00;;
10226;SDS011;15634;48.766;2.272;2022-12-19T13:48:49;7.95;;;3.30;;
10226;SDS011;15634;48.766;2.272;2022-12-19T13:51:17;5.68;;;3.15;;
10226;SDS011;15634;48.766;2.272;2022-12-19T13:53:44;5.68;;;3.08;;
10226;SDS011;15634;48.766;2.272;2022-12-19T13:56:13;4.93;;;3.00;;
10226;SDS011;15634;48.766;2.272;2022-12-19T13:58:42;4.03;;;2.80;;
10226;SDS011;15634;48.766;2.272;2022-12-19T14:01:13;5.07;;;3.25;;
10226;SDS011;15634;48.766;2.272;2022-12-19T14:03:42;6.70;;;3.20;;
10226;SDS011;15634;48.766;2.272;2022-12-19T14:06:15;5.60;;;3.25;;
10226;SDS011;15634;48.766;2.272;2022-12-19T14:08:45;7.03;;;3.38;;
10226;SDS011;15634;48.766;2.272;2022-12-19T14:11:14;5.40;;;3.13;;
10226;SDS011;15634;48.766;2.272;2022-12-19T14:13:43;6.47;;;3.60;;
10226;SDS011;15634;48.766;2.272;2022-12-19T14:16:29;6.47;;;3.42;;
10226;SDS011;15634;48.766;2.272;2022-12-19T14:18:55;6.13;;;3.15;;
10226;SDS011;15634;48.766;2.272;2022-12-19T14:21:25;10.13;;;3.60;;
10226;SDS011;15634;48.766;2.272;2022-12-19T14:24:06;6.47;;;3.53;;
10226;SDS011;15634;48.766;2.272;2022-12-19T14:26:35;5.35;;;3.20;;
10226;SDS011;15634;48.766;2.272;2022-12-19T14:29:03;4.90;;;3.13;;
10226;SDS011;15634;48.766;2.272;2022-12-19T14:31:32;6.60;;;3.15;;
10226;SDS011;15634;48.766;2.272;2022-12-19T14:33:59;7.05;;;3.33;;
10226;SDS011;15634;48.766;2.272;2022-12-19T14:36:27;5.28;;;3.10;;
10226;SDS011;15634;48.766;2.272;2022-12-19T14:38:55;6.35;;;3.47;;
10226;SDS011;15634;48.766;2.272;2022-12-19T14:41:31;6.68;;;3.25;;
10226;SDS011;15634;48.766;2.272;2022-12-19T14:44:20;6.65;;;3.50;;
10226;SDS011;15634;48.766;2.272;2022-12-19T14:46:56;8.07;;;3.33;;
10226;SDS011;15634;48.766;2.272;2022-12-19T14:49:25;5.05;;;3.53;;
10226;SDS011;15634;48.766;2.272;2022-12-19T14:51:56;7.05;;;3.45;;
10226;SDS011;15634;48.766;2.272;2022-12-19T14:54:22;6.25;;;3.50;;
10226;SDS011;15634;48.766;2.272;2022-12-19T14:56:51;8.77;;;3.42;;
10226;SDS011;15634;48.766;2.272;2022-12-19T14:59:24;5.90;;;3.33;;
10226;SDS011;15634;48.766;2.272;2022-12-19T15:01:54;7.82;;;3.53;;
10226;SDS011;15634;48.766;2.272;2022-12-19T15:04:23;6.38;;;3.60;;
10226;SDS011;15634;48.766;2.272;2022-12-19T15:06:52;7.80;;;3.83;;